Galaxy, South Carolina
Current Conditions -  °F | °C
As of 6:53 PM on Monday 24 Nov 2014 (Local Time) from KCUB Reporting Station
Scattered Clouds Scattered Clouds  
Wind Chill: 70°   Ceiling: Unl
Heat Index: 70°   Visibility: 10mi
Dew Point: 65°   Wind: 0mph
Humidity: 84%   Direction: NA
Pressure: 29.86"   Gusts: NA
Location:  33.9488°N, 80.9462°W
Report Text: KCUB 242353Z AUTO 00000KT 10SM FEW015 SCT110 21/18 A2986 RMK AO2 RAB24E46 PRESFR SLP110 P0000 60000 T02110183 10239 20211 50009
Loading
Personal Weather Stations






























Interactive Weather Map New forecast layout! Learn more

10-Day Weather Forecast

Advertisements
Track Severe Weather on mobile